Aérodrome :
LOGIN :

S'inscrire | Disclaimer

   EN    FR    IT 

 










Légende :    VFR   VFR Marginal   IFR   IFR Intensif   IFR Très Intensif
Visi : 
Plafond : 
>= 8 km
>= 3000ft
5 à 8 km
1000 à 3000 ft
1500m à 5 km
500 à 1000 ft
800 à 1500m
200 à 500 ft
< 800m
< 200 ft
Symboles :   Orages  Brouillard  Fortes neiges  Fortes précipitations  Vent > 20 kt
SIGMETs :   Divers  Orages  Givrage  Turbulence  Onde Orograph.  Cendres Volcan.







- Altitude de l'aérodrome : 218 ft
- Code IATA : LBG
- Voir les cartes d'approche


LFPB - Paris / Le Bourget

DERNIER METAR :
  • 240430Z AUTO 02002KT 9999 FEW048 14/13 Q1018 NOSIG

METARs EXPIRÉS :
  • 240400Z AUTO 01002KT 9999 FEW048 BKN220 BKN250 13/12 Q1018 NOSIG
  • 240330Z AUTO 01002KT CAVOK 14/12 Q1018 NOSIG
  • 240300Z AUTO 36002KT 9999 SCT048 OVC220 14/13 Q1018 NOSIG
  • 240200Z AUTO 00000KT 9999 SCT047 14/12 Q1018 NOSIG

TAF TAF LFPB
Valide du 24 à 00h jusqu'au 25 à 00h UTC


232300Z 2400/2424 VRB02KT CAVOK
BECMG 2402/2406 BKN035
TEMPO 2421/2424 02010KT
ATIS : +33 1 48 62 43 92
Pas de NOTAMs connus pour ce terrain.



MET'MAP, la Météo Aéronautique d'un coup d'oeil ! - Copyright ORBIFLY Décembre 2007 - Disclaimer

ORBIFLY MET'MAP TEAM :

Programmation & Développement : Alexandra Zaïnal
Conception & Développement : Baudouin d'Aumeries
Co-Programmation & Développement : Marc-Olivier Méhu
Soutien technique & logistique : Manuel Goepfert

Contact : metmap@orbifly.com




SOURCES & CREDITS :

   NOAA